createdAt,value
2022-11-15T04:00:56.919Z,99.90
2022-11-15T04:03:42.400Z,99.90
2022-11-15T04:10:40.615Z,99.90
2022-11-15T04:13:25.924Z,99.90
2022-11-15T04:16:13.164Z,99.90
2022-11-15T04:19:16.744Z,99.90
2022-11-15T04:22:20.734Z,99.90
2022-11-15T04:25:06.795Z,99.90
2022-11-15T04:27:52.044Z,99.90
2022-11-15T04:30:37.783Z,99.90
2022-11-15T04:33:24.628Z,99.90
2022-11-15T04:36:28.529Z,99.90
2022-11-15T04:39:14.117Z,99.90
2022-11-15T04:41:59.847Z,99.90
2022-11-15T04:44:45.296Z,99.90
2022-11-15T04:47:30.933Z,99.90
2022-11-15T04:50:18.429Z,99.90
2022-11-15T04:53:03.658Z,99.90
2022-11-15T04:55:49.269Z,99.90
2022-11-15T04:58:34.919Z,99.90
2022-11-15T05:01:20.344Z,99.90
2022-11-15T05:04:21.693Z,99.90
2022-11-15T05:07:08.431Z,99.90
2022-11-15T05:09:54.000Z,99.90
2022-11-15T05:12:39.710Z,99.90
2022-11-15T05:15:24.953Z,99.90
2022-11-15T05:18:10.559Z,99.90
2022-11-15T05:20:56.306Z,99.90
2022-11-15T05:23:43.179Z,99.90
2022-11-15T05:26:28.922Z,99.90
2022-11-15T05:29:14.385Z,99.90
2022-11-15T05:32:00.475Z,99.90
2022-11-15T05:34:46.670Z,99.90
2022-11-15T05:37:32.235Z,99.90
2022-11-15T05:40:19.233Z,99.90
2022-11-15T05:43:05.702Z,99.90
2022-11-15T05:45:51.392Z,99.90
2022-11-15T05:48:38.872Z,99.90
2022-11-15T05:51:24.815Z,99.90
2022-11-15T05:54:11.803Z,99.90
2022-11-15T05:56:58.868Z,99.90
2022-11-15T05:59:44.518Z,99.90
2022-11-15T06:02:30.129Z,99.90
2022-11-15T06:05:15.481Z,99.90
2022-11-15T06:08:01.497Z,99.90
2022-11-15T06:10:46.959Z,99.90
2022-11-15T06:13:34.629Z,99.90
2022-11-15T06:16:20.072Z,99.90
2022-11-15T06:19:07.416Z,99.90
2022-11-15T06:21:52.756Z,99.90
2022-11-15T06:24:38.261Z,99.90
2022-11-15T06:27:23.792Z,99.90
2022-11-15T06:30:11.685Z,99.90
2022-11-15T06:33:01.644Z,99.90
2022-11-15T06:35:47.440Z,99.90
2022-11-15T06:38:32.807Z,99.90
2022-11-15T06:41:18.722Z,99.90
2022-11-15T06:44:04.319Z,99.90
2022-11-15T06:46:51.684Z,99.90
2022-11-15T06:49:37.432Z,99.90
2022-11-15T06:52:23.386Z,99.90
2022-11-15T06:55:10.028Z,99.90
2022-11-15T06:57:55.748Z,99.90
2022-11-15T07:00:41.513Z,99.90
2022-11-15T07:03:28.422Z,99.90
2022-11-15T07:06:14.070Z,99.90
2022-11-15T07:08:59.387Z,99.90
2022-11-15T07:11:45.020Z,99.90
2022-11-15T07:14:30.574Z,99.90
2022-11-15T07:17:16.112Z,99.90
2022-11-15T07:20:03.279Z,99.90
2022-11-15T07:22:48.956Z,99.90
2022-11-15T07:25:35.428Z,99.90
2022-11-15T07:28:20.852Z,99.90
2022-11-15T07:31:08.151Z,99.90
2022-11-15T07:33:53.589Z,99.90
2022-11-15T07:36:40.383Z,99.90
2022-11-15T07:39:25.911Z,99.90
2022-11-15T07:42:30.036Z,99.90
2022-11-15T07:45:15.740Z,99.90
2022-11-15T07:48:01.549Z,99.90
2022-11-15T07:50:47.243Z,99.90
2022-11-15T07:53:35.020Z,99.90
2022-11-15T07:56:21.751Z,99.90
2022-11-15T07:59:07.311Z,99.90
2022-11-15T08:01:53.029Z,99.90
2022-11-15T08:04:38.538Z,99.90
2022-11-15T08:07:24.045Z,99.90
2022-11-15T08:10:12.927Z,99.90
2022-11-15T08:12:59.744Z,99.90
2022-11-15T08:15:45.166Z,99.90
2022-11-15T08:18:30.988Z,99.90
2022-11-15T08:21:22.103Z,99.90
2022-11-15T08:24:11.176Z,99.90
2022-11-15T08:26:58.161Z,99.90
2022-11-15T08:29:44.722Z,99.90
2022-11-15T08:32:31.104Z,99.90
2022-11-15T08:35:17.002Z,99.90
2022-11-15T08:38:02.624Z,99.90
2022-11-15T08:40:48.480Z,99.90
2022-11-15T08:43:35.504Z,99.90
2022-11-15T08:46:21.312Z,99.90
2022-11-15T08:49:07.085Z,99.90
2022-11-15T08:51:52.659Z,99.90
2022-11-15T08:54:38.224Z,99.90
2022-11-15T08:57:23.893Z,99.90
2022-11-15T09:00:13.041Z,99.90
2022-11-15T09:02:58.561Z,99.90
2022-11-15T09:05:44.137Z,99.90
2022-11-15T09:08:47.150Z,99.90
2022-11-15T09:11:33.629Z,99.90
2022-11-15T09:14:18.728Z,99.90
2022-11-15T09:17:08.407Z,99.90
2022-11-15T09:19:54.037Z,99.90
2022-11-15T09:22:40.070Z,99.90
2022-11-15T09:25:25.532Z,99.90
2022-11-15T09:28:10.983Z,99.90
2022-11-15T09:30:59.044Z,99.90
2022-11-15T09:33:46.790Z,99.90
2022-11-15T09:36:32.442Z,99.90
2022-11-15T09:39:17.859Z,99.90
2022-11-15T09:42:24.985Z,99.90
2022-11-15T09:45:18.310Z,99.90
2022-11-15T09:48:32.965Z,99.90
2022-11-15T09:51:26.447Z,99.20
2022-11-15T09:54:46.140Z,99.20
2022-11-15T09:56:52.247Z,99.40
2022-11-15T09:59:41.536Z,98.60
2022-11-15T10:02:20.951Z,98.00
2022-11-15T10:04:48.252Z,98.40
2022-11-15T10:07:22.309Z,98.40
2022-11-15T10:09:54.260Z,98.90
2022-11-15T10:12:21.285Z,99.50
2022-11-15T10:14:54.586Z,99.20
2022-11-15T10:17:47.145Z,99.40
2022-11-15T10:20:21.039Z,98.90
2022-11-15T10:22:52.036Z,99.40
2022-11-15T10:25:22.095Z,99.40
2022-11-15T10:27:56.684Z,99.60
2022-11-15T10:30:24.888Z,99.30
2022-11-15T10:32:51.820Z,99.20
2022-11-15T10:35:25.139Z,99.30
2022-11-15T10:38:04.988Z,99.50
2022-11-15T10:40:31.899Z,99.90
2022-11-15T10:43:07.074Z,99.90
2022-11-15T10:45:35.384Z,99.90
2022-11-15T10:48:25.596Z,99.90
2022-11-15T10:50:54.477Z,99.90
2022-11-15T10:53:27.413Z,99.90
2022-11-15T10:55:57.376Z,99.90
2022-11-15T10:58:36.010Z,99.90
2022-11-15T11:01:28.162Z,99.90
2022-11-15T11:04:00.602Z,99.90
2022-11-15T11:06:28.045Z,99.90
2022-11-15T11:08:58.968Z,99.90
2022-11-15T11:11:26.567Z,99.90
2022-11-15T11:13:53.796Z,99.90
2022-11-15T11:16:38.803Z,99.90
2022-11-15T11:19:16.571Z,99.90
2022-11-15T11:21:52.108Z,99.90
2022-11-15T11:24:30.348Z,99.90
2022-11-15T11:27:09.978Z,99.90
2022-11-15T11:29:50.623Z,99.90
2022-11-15T11:32:31.964Z,99.90
2022-11-15T11:35:07.642Z,99.90
2022-11-15T11:37:41.124Z,99.90
2022-11-15T11:40:20.700Z,99.90
2022-11-15T11:43:00.101Z,99.90
2022-11-15T11:45:50.773Z,99.90
2022-11-15T11:48:30.222Z,99.90
2022-11-15T11:51:02.849Z,99.90
2022-11-15T11:53:38.228Z,99.90
2022-11-15T11:56:16.149Z,99.90
2022-11-15T11:58:45.148Z,99.90
2022-11-15T12:01:18.485Z,99.90
2022-11-15T12:03:48.989Z,99.90
2022-11-15T12:06:27.707Z,99.90
2022-11-15T12:09:03.047Z,99.90
2022-11-15T12:11:38.360Z,99.90
2022-11-15T12:14:17.383Z,99.90
2022-11-15T12:16:44.449Z,99.90
2022-11-15T12:19:11.469Z,99.90
2022-11-15T12:21:44.954Z,99.90
2022-11-15T12:24:17.043Z,99.90
2022-11-15T12:26:50.541Z,99.90
2022-11-15T12:29:24.079Z,99.90
2022-11-15T12:31:56.678Z,99.90
2022-11-15T12:34:46.262Z,99.90
2022-11-15T12:37:52.731Z,99.90
2022-11-15T12:40:35.940Z,99.90
2022-11-15T12:43:27.012Z,99.90
2022-11-15T12:45:53.922Z,99.90
2022-11-15T12:48:57.697Z,99.90
2022-11-15T12:52:05.259Z,99.90
2022-11-15T12:54:55.651Z,99.90
2022-11-15T12:57:34.900Z,99.90
2022-11-15T13:00:25.291Z,99.90
2022-11-15T13:03:25.898Z,99.90
2022-11-15T13:06:06.868Z,99.90
2022-11-15T13:08:51.949Z,99.90
2022-11-15T13:11:48.623Z,99.90
2022-11-15T13:14:48.077Z,99.90
2022-11-15T13:17:26.744Z,99.90
2022-11-15T13:20:04.674Z,99.90
2022-11-15T13:22:52.713Z,99.90
2022-11-15T13:25:32.963Z,99.90
2022-11-15T13:28:07.630Z,99.90
2022-11-15T13:30:34.940Z,99.90
2022-11-15T13:33:11.724Z,99.90
2022-11-15T13:35:41.777Z,99.90
2022-11-15T13:38:19.740Z,99.90
2022-11-15T13:40:46.588Z,99.90
2022-11-15T13:43:30.593Z,99.90
2022-11-15T13:46:09.024Z,99.90
2022-11-15T13:48:37.912Z,99.90
2022-11-15T13:51:07.947Z,99.90
2022-11-15T13:53:38.676Z,99.90
2022-11-15T13:56:07.238Z,99.90
2022-11-15T13:58:35.125Z,99.90
2022-11-15T14:01:04.058Z,99.90
2022-11-15T14:03:32.957Z,99.90
2022-11-15T14:06:15.959Z,99.90
2022-11-15T14:08:58.449Z,99.90
2022-11-15T14:11:26.504Z,99.90
2022-11-15T14:14:06.162Z,99.90
2022-11-15T14:16:37.981Z,99.90
2022-11-15T14:19:06.536Z,99.90
2022-11-15T14:21:34.810Z,99.90
2022-11-15T14:24:17.788Z,99.90
2022-11-15T14:26:44.938Z,99.90
2022-11-15T14:29:24.753Z,99.90
2022-11-15T14:31:51.653Z,99.90
2022-11-15T14:34:18.600Z,99.90
2022-11-15T14:36:47.087Z,99.90
2022-11-15T14:39:14.017Z,99.90
2022-11-15T14:41:41.047Z,99.90
2022-11-15T14:44:11.763Z,99.90
2022-11-15T14:46:38.688Z,99.90
2022-11-15T14:49:05.872Z,99.90
2022-11-15T14:51:34.209Z,99.90
2022-11-15T14:54:02.448Z,99.90
2022-11-15T14:56:29.316Z,99.90
2022-11-15T14:58:56.287Z,99.90
2022-11-15T15:01:26.056Z,99.90
2022-11-15T15:03:55.062Z,99.90
2022-11-15T15:06:22.000Z,99.90
2022-11-15T15:08:51.364Z,99.90
2022-11-15T15:11:23.354Z,99.90
2022-11-15T15:13:51.157Z,99.90
2022-11-15T15:16:18.085Z,99.90
2022-11-15T15:18:45.111Z,99.90
2022-11-15T15:21:20.927Z,99.90
2022-11-15T15:23:47.960Z,99.90
2022-11-15T15:26:15.442Z,99.90
2022-11-15T15:28:43.753Z,99.90
2022-11-15T15:31:11.498Z,99.90
2022-11-15T15:33:38.813Z,99.90
2022-11-15T15:36:06.076Z,99.90
2022-11-15T15:38:33.321Z,99.90
2022-11-15T15:41:02.885Z,99.90
2022-11-15T15:43:29.860Z,99.90
2022-11-15T15:45:58.112Z,99.90
2022-11-15T15:48:25.359Z,99.90
2022-11-15T15:50:52.283Z,99.90
2022-11-15T15:53:19.125Z,99.90
2022-11-15T15:55:46.008Z,99.90
2022-11-15T15:58:12.841Z,99.90
2022-11-15T16:00:39.823Z,99.90
2022-11-15T16:03:08.067Z,99.90
2022-11-15T16:05:35.016Z,99.90
2022-11-15T16:08:01.949Z,99.90
2022-11-15T16:10:31.941Z,99.90
2022-11-15T16:12:59.246Z,99.90
2022-11-15T16:15:28.230Z,99.90
2022-11-15T16:17:56.617Z,99.90
2022-11-15T16:20:31.706Z,99.90
2022-11-15T16:23:03.087Z,99.90
2022-11-15T16:25:38.727Z,99.90
2022-11-15T16:28:05.733Z,99.90
2022-11-15T16:30:32.644Z,99.90
2022-11-15T16:32:59.719Z,99.90
2022-11-15T16:35:28.089Z,99.90
2022-11-15T16:37:55.073Z,99.90
2022-11-15T16:40:27.800Z,99.90
2022-11-15T16:42:56.523Z,99.90
2022-11-15T16:45:23.949Z,99.90
2022-11-15T16:47:51.141Z,99.90
2022-11-15T16:50:26.020Z,99.90
2022-11-15T16:53:00.061Z,99.90
2022-11-15T16:55:29.431Z,99.90
2022-11-15T16:58:05.599Z,99.90
2022-11-15T17:00:33.584Z,99.90
2022-11-15T17:03:00.815Z,99.90
2022-11-15T17:05:27.912Z,99.90
2022-11-15T17:07:56.481Z,99.90
2022-11-15T17:10:24.736Z,99.90
2022-11-15T17:12:52.589Z,99.90
2022-11-15T17:15:19.814Z,99.90
2022-11-15T17:17:52.673Z,99.90
2022-11-15T17:20:21.728Z,99.90
2022-11-15T17:22:48.649Z,99.90
2022-11-15T17:25:16.999Z,99.90
2022-11-15T17:27:43.958Z,99.90
2022-11-15T17:30:13.359Z,99.90
2022-11-15T17:32:40.354Z,99.90
2022-11-15T17:35:14.844Z,99.90
2022-11-15T17:37:42.656Z,99.90
2022-11-15T17:40:10.790Z,99.90
2022-11-15T17:42:41.113Z,99.90
2022-11-15T17:45:10.332Z,99.90
2022-11-15T17:47:37.537Z,99.90
2022-11-15T17:50:05.202Z,99.90
2022-11-15T17:52:32.320Z,99.90
2022-11-15T17:54:59.192Z,99.90
2022-11-15T17:57:26.099Z,99.90
2022-11-15T17:59:55.256Z,99.90
2022-11-15T18:02:22.263Z,99.90
2022-11-15T18:04:49.232Z,99.90
2022-11-15T18:07:16.273Z,99.90
2022-11-15T18:09:44.096Z,99.90
2022-11-15T18:12:11.711Z,99.90
2022-11-15T18:14:39.044Z,99.90
2022-11-15T18:17:07.312Z,99.90
2022-11-15T18:19:34.671Z,99.90
2022-11-15T18:22:04.306Z,99.90
2022-11-15T18:24:33.417Z,99.90
2022-11-15T18:27:01.781Z,99.90
2022-11-15T18:29:29.080Z,99.90
2022-11-15T18:31:56.262Z,99.90
2022-11-15T18:34:26.919Z,99.90
2022-11-15T18:36:53.984Z,99.90
2022-11-15T18:39:21.180Z,99.90
2022-11-15T18:41:48.644Z,99.90
2022-11-15T18:44:16.425Z,99.90
2022-11-15T18:46:45.119Z,99.90
2022-11-15T18:49:13.784Z,99.90
2022-11-15T18:51:44.605Z,99.90
2022-11-15T18:54:13.573Z,99.90
2022-11-15T18:56:40.732Z,99.90
2022-11-15T18:59:08.683Z,99.90
2022-11-15T19:01:37.555Z,99.90
2022-11-15T19:04:08.174Z,99.90
2022-11-15T19:06:38.310Z,99.90
2022-11-15T19:09:07.671Z,99.90
2022-11-15T19:11:36.444Z,99.90
2022-11-15T19:14:05.492Z,99.90
2022-11-15T19:16:34.155Z,99.90
2022-11-15T19:19:04.889Z,99.90
2022-11-15T19:21:32.146Z,99.90
2022-11-15T19:24:00.021Z,99.90
2022-11-15T19:26:29.300Z,99.90
2022-11-15T19:28:57.920Z,99.90
2022-11-15T19:31:26.074Z,99.90
2022-11-15T19:33:53.925Z,99.90
2022-11-15T19:36:22.983Z,99.90
2022-11-15T19:38:50.225Z,99.90
2022-11-15T19:41:18.414Z,99.90
2022-11-15T19:43:53.394Z,99.90
2022-11-15T19:46:23.481Z,99.90
2022-11-15T19:48:51.577Z,99.90
2022-11-15T19:51:21.548Z,99.90
2022-11-15T19:53:49.462Z,99.90
2022-11-15T19:56:18.137Z,99.90
2022-11-15T19:58:47.036Z,99.90
2022-11-15T20:01:18.096Z,99.90
2022-11-15T20:03:46.730Z,99.90
2022-11-15T20:06:18.560Z,99.90
2022-11-15T20:08:47.799Z,99.90
2022-11-15T20:11:16.026Z,99.90
2022-11-15T20:13:43.539Z,99.90
2022-11-15T20:16:16.104Z,99.90
2022-11-15T20:18:43.107Z,99.90
2022-11-15T20:21:10.680Z,99.90
2022-11-15T20:23:38.931Z,99.90
2022-11-15T20:26:07.514Z,99.90
2022-11-15T20:28:36.773Z,99.90
2022-11-15T20:31:04.446Z,99.90
2022-11-15T20:33:32.744Z,99.90
2022-11-15T20:36:03.932Z,99.90
2022-11-15T20:38:30.986Z,99.90
2022-11-15T20:41:00.312Z,99.90
2022-11-15T20:43:27.600Z,99.90
2022-11-15T20:45:54.538Z,99.90
2022-11-15T20:48:21.709Z,99.90
2022-11-15T20:50:50.179Z,99.90
2022-11-15T20:53:19.191Z,99.90
2022-11-15T20:55:48.479Z,99.90
2022-11-15T20:58:16.920Z,99.90
2022-11-15T21:00:44.855Z,99.90
2022-11-15T21:03:13.960Z,99.90
2022-11-15T21:05:42.633Z,99.90
2022-11-15T21:08:12.312Z,99.90
2022-11-15T21:10:59.584Z,99.90
2022-11-15T21:13:26.768Z,99.90
2022-11-15T21:15:56.096Z,99.90
2022-11-15T21:18:23.061Z,99.90
2022-11-15T21:20:50.665Z,99.90
2022-11-15T21:23:18.949Z,99.90
2022-11-15T21:25:48.848Z,99.90
2022-11-15T21:28:15.799Z,99.90
2022-11-15T21:30:42.686Z,99.90
2022-11-15T21:33:09.529Z,99.90
2022-11-15T21:35:36.604Z,99.90
2022-11-15T21:38:03.422Z,99.90
2022-11-15T21:40:31.650Z,99.90
2022-11-15T21:42:58.503Z,99.90
2022-11-15T21:45:25.407Z,99.90
2022-11-15T21:47:52.280Z,99.90
2022-11-15T21:50:19.124Z,99.90
2022-11-15T21:52:47.004Z,99.90
2022-11-15T21:55:13.928Z,99.90
2022-11-15T21:57:42.117Z,99.90
2022-11-15T22:00:28.414Z,99.90
2022-11-15T22:02:55.287Z,99.90
2022-11-15T22:05:22.149Z,99.90
2022-11-15T22:07:49.047Z,99.90
2022-11-15T22:10:15.978Z,99.90
2022-11-15T22:12:44.142Z,99.90
2022-11-15T22:15:11.125Z,99.90
2022-11-15T22:17:56.559Z,99.90
2022-11-15T22:20:43.655Z,99.90
2022-11-15T22:23:10.595Z,99.90
2022-11-15T22:25:37.553Z,99.90
2022-11-15T22:28:05.886Z,99.90
2022-11-15T22:30:32.827Z,99.90
2022-11-15T22:32:59.860Z,99.90
2022-11-15T22:35:27.033Z,99.90
2022-11-15T22:37:53.968Z,99.90
2022-11-15T22:40:21.021Z,99.90
2022-11-15T22:42:47.944Z,99.90
2022-11-15T22:45:16.300Z,99.90
2022-11-15T22:47:43.195Z,99.90
2022-11-15T22:50:10.167Z,99.90
2022-11-15T22:52:37.126Z,99.90
2022-11-15T22:55:04.723Z,99.90
2022-11-15T22:57:31.648Z,99.90
2022-11-15T22:59:58.582Z,99.90
2022-11-15T23:02:27.710Z,99.90
2022-11-15T23:04:54.657Z,99.90
2022-11-15T23:07:21.740Z,99.90
2022-11-15T23:09:52.214Z,99.90
2022-11-15T23:12:37.996Z,99.90
2022-11-15T23:15:05.898Z,99.90
2022-11-15T23:17:34.160Z,99.90
2022-11-15T23:20:11.377Z,99.90
2022-11-15T23:22:48.084Z,99.90
2022-11-15T23:25:15.126Z,99.90
2022-11-15T23:27:42.092Z,99.90
2022-11-15T23:30:28.464Z,99.90
2022-11-15T23:33:15.416Z,99.90
2022-11-15T23:35:42.362Z,99.90
2022-11-15T23:38:09.316Z,99.90
2022-11-15T23:40:36.239Z,99.90
2022-11-15T23:43:03.142Z,99.90
2022-11-15T23:45:30.080Z,99.90
2022-11-15T23:48:01.526Z,99.90
2022-11-15T23:50:28.919Z,99.90
2022-11-15T23:52:55.848Z,99.90
2022-11-15T23:55:22.742Z,99.90
2022-11-15T23:57:49.673Z,99.90
